createdAt,value
2019-03-08T00:00:46.252Z,0.98
2019-03-08T00:03:15.134Z,1.00
2019-03-08T00:05:44.065Z,0.60
2019-03-08T00:08:12.896Z,0.93
2019-03-08T00:10:41.854Z,0.80
2019-03-08T00:13:10.969Z,0.90
2019-03-08T00:15:40.720Z,0.90
2019-03-08T00:18:09.867Z,1.00
2019-03-08T00:20:38.871Z,0.80
2019-03-08T00:23:07.917Z,1.05
2019-03-08T00:25:36.987Z,0.70
2019-03-08T00:28:05.925Z,0.90
2019-03-08T00:30:34.955Z,0.78
2019-03-08T00:33:04.093Z,0.90
2019-03-08T00:35:33.066Z,0.60
2019-03-08T00:38:02.206Z,0.70
2019-03-08T00:40:31.255Z,0.90
2019-03-08T00:43:00.524Z,0.90
2019-03-08T00:45:29.502Z,0.80
2019-03-08T00:47:58.559Z,0.70
2019-03-08T00:50:27.643Z,0.68
2019-03-08T00:52:57.042Z,0.80
2019-03-08T00:55:26.821Z,0.90
2019-03-08T00:57:55.806Z,0.50
2019-03-08T01:00:25.100Z,0.70
2019-03-08T01:02:54.451Z,0.80
2019-03-08T01:05:23.908Z,0.82
2019-03-08T01:07:52.946Z,0.70
2019-03-08T01:10:22.279Z,0.65
2019-03-08T01:12:51.090Z,0.90
2019-03-08T01:15:20.027Z,0.80
2019-03-08T01:17:48.827Z,0.60
2019-03-08T01:20:17.747Z,0.70
2019-03-08T01:22:46.605Z,0.60
2019-03-08T01:25:15.413Z,0.50
2019-03-08T01:28:07.160Z,0.90
2019-03-08T01:30:36.312Z,0.50
2019-03-08T01:33:05.135Z,0.50
2019-03-08T01:35:34.373Z,0.57
2019-03-08T01:38:03.183Z,0.50
2019-03-08T01:40:31.996Z,0.60
2019-03-08T01:43:00.837Z,0.53
2019-03-08T01:45:29.661Z,0.55
2019-03-08T01:47:58.477Z,0.65
2019-03-08T01:50:27.563Z,0.70
2019-03-08T01:52:56.370Z,0.50
2019-03-08T01:55:25.185Z,0.50
2019-03-08T01:57:54.015Z,0.70
2019-03-08T02:00:22.830Z,0.60
2019-03-08T02:02:51.647Z,0.50
2019-03-08T02:05:20.763Z,0.70
2019-03-08T02:07:49.555Z,0.53
2019-03-08T02:10:18.341Z,0.65
2019-03-08T02:12:47.182Z,0.60
2019-03-08T02:15:16.041Z,0.72
2019-03-08T02:17:44.883Z,0.60
2019-03-08T02:20:15.892Z,0.62
2019-03-08T02:22:44.702Z,0.60
2019-03-08T02:25:13.488Z,0.60
2019-03-08T02:27:42.346Z,0.70
2019-03-08T02:30:13.106Z,0.85
2019-03-08T02:32:42.112Z,0.50
2019-03-08T02:35:11.059Z,0.50
2019-03-08T02:37:39.899Z,0.62
2019-03-08T02:40:40.474Z,0.53
2019-03-08T02:43:17.062Z,0.53
2019-03-08T02:45:45.841Z,0.50
2019-03-08T02:48:14.654Z,0.50
2019-03-08T02:50:43.466Z,0.82
2019-03-08T02:53:12.269Z,0.50
2019-03-08T02:55:41.149Z,1.45
2019-03-08T02:58:09.950Z,0.55
2019-03-08T03:00:45.739Z,1.25
2019-03-08T03:03:14.671Z,0.55
2019-03-08T03:05:43.482Z,0.60
2019-03-08T03:08:12.304Z,0.50
2019-03-08T03:10:41.126Z,0.62
2019-03-08T03:13:09.930Z,0.57
2019-03-08T03:15:38.769Z,0.80
2019-03-08T03:18:07.570Z,0.78
2019-03-08T03:20:36.566Z,0.57
2019-03-08T03:23:05.412Z,0.70
2019-03-08T03:25:34.296Z,0.80
2019-03-08T03:28:03.169Z,0.72
2019-03-08T03:30:31.996Z,0.60
2019-03-08T03:33:00.844Z,0.60
2019-03-08T03:35:30.023Z,0.68
2019-03-08T03:37:58.957Z,0.60
2019-03-08T03:40:27.757Z,0.55
2019-03-08T03:42:56.585Z,0.70
2019-03-08T03:45:25.419Z,0.70
2019-03-08T03:47:54.282Z,0.50
2019-03-08T03:50:23.266Z,0.80
2019-03-08T03:52:51.986Z,0.70
2019-03-08T03:55:20.856Z,0.60
2019-03-08T03:57:49.626Z,0.50
2019-03-08T04:00:18.609Z,1.17
2019-03-08T04:02:47.441Z,0.72
2019-03-08T04:05:16.227Z,0.60
2019-03-08T04:07:45.013Z,0.70
2019-03-08T04:10:13.786Z,0.80
2019-03-08T04:12:42.603Z,1.35
2019-03-08T04:15:13.020Z,0.50
2019-03-08T04:17:41.834Z,0.68
2019-03-08T04:20:12.328Z,0.80
2019-03-08T04:22:41.135Z,0.85
2019-03-08T04:25:09.974Z,0.72
2019-03-08T04:27:38.840Z,1.00
2019-03-08T04:30:09.116Z,1.02
2019-03-08T04:32:38.061Z,0.82
2019-03-08T04:35:06.890Z,0.90
2019-03-08T04:37:35.678Z,0.82
2019-03-08T04:40:05.419Z,0.88
2019-03-08T04:42:34.293Z,0.78
2019-03-08T04:45:03.186Z,1.10
2019-03-08T04:47:32.438Z,0.80
2019-03-08T04:50:01.340Z,0.80
2019-03-08T04:52:30.150Z,1.15
2019-03-08T04:54:58.967Z,0.78
2019-03-08T04:57:27.795Z,0.90
2019-03-08T04:59:56.610Z,1.15
2019-03-08T05:02:25.703Z,0.80
2019-03-08T05:04:54.652Z,0.80
2019-03-08T05:07:23.465Z,0.72
2019-03-08T05:09:52.282Z,0.70
2019-03-08T05:12:21.105Z,0.80
2019-03-08T05:14:49.902Z,0.78
2019-03-08T05:17:18.784Z,0.75
2019-03-08T05:19:47.611Z,0.60
2019-03-08T05:22:16.414Z,0.80
2019-03-08T05:24:45.149Z,0.75
2019-03-08T05:27:13.961Z,0.78
2019-03-08T05:29:42.812Z,0.85
2019-03-08T05:32:11.598Z,0.80
2019-03-08T05:34:40.415Z,0.80
2019-03-08T05:37:09.329Z,1.72
2019-03-08T05:39:38.118Z,0.90
2019-03-08T05:42:06.941Z,0.70
2019-03-08T05:44:35.787Z,1.02
2019-03-08T05:47:04.608Z,0.95
2019-03-08T05:49:33.423Z,0.82
2019-03-08T05:52:02.314Z,0.98
2019-03-08T05:54:31.098Z,0.70
2019-03-08T05:56:59.906Z,0.80
2019-03-08T05:59:28.755Z,0.80
2019-03-08T06:01:57.558Z,0.75
2019-03-08T06:04:26.373Z,0.80
2019-03-08T06:06:55.186Z,0.82
2019-03-08T06:09:24.020Z,0.80
2019-03-08T06:11:52.822Z,0.90
2019-03-08T06:14:21.679Z,0.88
2019-03-08T06:16:50.743Z,0.90
2019-03-08T06:19:19.613Z,1.10
2019-03-08T06:21:48.443Z,0.78
2019-03-08T06:24:17.256Z,0.75
2019-03-08T06:26:46.157Z,0.75
2019-03-08T06:29:14.965Z,0.70
2019-03-08T06:31:43.990Z,0.70
2019-03-08T06:34:12.830Z,0.65
2019-03-08T06:36:41.630Z,0.80
2019-03-08T06:39:10.463Z,0.85
2019-03-08T06:41:39.306Z,0.80
2019-03-08T06:44:08.115Z,0.90
2019-03-08T06:46:37.221Z,0.70
2019-03-08T06:49:06.105Z,0.82
2019-03-08T06:51:34.909Z,0.70
2019-03-08T06:54:03.703Z,0.90
2019-03-08T06:56:32.544Z,0.80
2019-03-08T06:59:15.666Z,0.80
2019-03-08T07:01:44.514Z,0.70
2019-03-08T07:04:13.305Z,0.72
2019-03-08T07:06:42.085Z,0.60
2019-03-08T07:09:10.942Z,0.62
2019-03-08T07:11:39.742Z,0.80
2019-03-08T07:14:08.760Z,0.90
2019-03-08T07:16:37.625Z,0.65
2019-03-08T07:19:06.439Z,0.80
2019-03-08T07:21:50.797Z,0.53
2019-03-08T07:24:38.662Z,0.53
2019-03-08T07:27:29.387Z,0.70
2019-03-08T07:30:16.170Z,0.72
2019-03-08T07:33:09.870Z,0.70
2019-03-08T07:36:00.501Z,0.60
2019-03-08T07:38:40.273Z,0.65
2019-03-08T07:41:43.158Z,0.40
2019-03-08T07:44:23.642Z,0.78
2019-03-08T07:47:14.572Z,0.75
2019-03-08T07:50:11.351Z,0.60
2019-03-08T07:52:59.223Z,0.35
2019-03-08T07:55:46.554Z,0.50
2019-03-08T07:58:24.911Z,0.70
2019-03-08T08:01:11.154Z,0.78
2019-03-08T08:04:08.397Z,0.50
2019-03-08T08:06:58.726Z,0.50
2019-03-08T08:10:05.184Z,0.60
2019-03-08T08:12:47.076Z,0.60
2019-03-08T08:15:22.413Z,0.60
2019-03-08T08:18:16.099Z,0.50
2019-03-08T08:21:03.954Z,0.85
2019-03-08T08:23:51.393Z,0.72
2019-03-08T08:26:42.155Z,0.70
2019-03-08T08:29:34.988Z,0.60
2019-03-08T08:32:17.055Z,0.60
2019-03-08T08:35:13.742Z,0.42
2019-03-08T08:38:00.455Z,0.60
2019-03-08T08:41:03.358Z,0.45
2019-03-08T08:43:47.714Z,0.50
2019-03-08T08:46:34.279Z,0.42
2019-03-08T08:49:20.781Z,0.45
2019-03-08T08:52:11.769Z,0.60
2019-03-08T08:54:49.825Z,0.50
2019-03-08T08:57:31.219Z,0.50
2019-03-08T09:00:05.922Z,0.60
2019-03-08T09:02:52.403Z,1.07
2019-03-08T09:05:27.343Z,0.57
2019-03-08T09:08:15.275Z,0.60
2019-03-08T09:11:07.307Z,0.47
2019-03-08T09:13:50.584Z,0.50
2019-03-08T09:16:37.316Z,0.60
2019-03-08T09:19:25.223Z,0.68
2019-03-08T09:22:07.773Z,0.35
2019-03-08T09:24:42.229Z,0.40
2019-03-08T09:27:24.948Z,0.50
2019-03-08T09:32:59.288Z,0.70
2019-03-08T09:38:19.397Z,0.50
2019-03-08T09:41:06.113Z,0.60
2019-03-08T09:43:47.940Z,0.80
2019-03-08T09:46:32.138Z,0.60
2019-03-08T09:49:17.727Z,0.62
2019-03-08T09:51:54.622Z,0.60
2019-03-08T09:55:00.586Z,0.50
2019-03-08T09:57:47.291Z,0.45
2019-03-08T10:00:31.196Z,0.60
2019-03-08T10:03:09.334Z,0.60
2019-03-08T10:05:57.199Z,0.50
2019-03-08T10:08:41.327Z,0.60
2019-03-08T10:11:18.371Z,0.50
2019-03-08T10:13:53.098Z,0.42
2019-03-08T10:16:26.281Z,0.60
2019-03-08T10:19:12.312Z,0.60
2019-03-08T10:22:18.802Z,0.57
2019-03-08T10:25:04.540Z,0.70
2019-03-08T10:27:52.190Z,1.00
2019-03-08T10:30:38.228Z,0.55
2019-03-08T10:33:24.974Z,0.53
2019-03-08T10:36:07.247Z,0.50
2019-03-08T10:38:41.494Z,1.02
2019-03-08T10:41:16.044Z,0.42
2019-03-08T10:44:08.522Z,0.50
2019-03-08T10:46:48.664Z,0.78
2019-03-08T10:49:55.318Z,0.50
2019-03-08T10:52:33.195Z,0.60
2019-03-08T10:58:16.310Z,0.68
2019-03-08T11:00:52.830Z,0.37
2019-03-08T11:03:35.033Z,0.80
2019-03-08T11:06:15.366Z,0.60
2019-03-08T11:09:02.818Z,0.60
2019-03-08T11:11:49.724Z,0.75
2019-03-08T11:14:49.808Z,0.50
2019-03-08T11:17:50.548Z,1.17
2019-03-08T11:20:39.380Z,0.70
2019-03-08T11:23:26.325Z,0.82
2019-03-08T11:26:32.558Z,0.50
2019-03-08T11:29:26.383Z,0.70
2019-03-08T11:32:12.666Z,1.47
2019-03-08T11:35:00.592Z,0.60
2019-03-08T11:37:51.738Z,0.95
2019-03-08T11:40:40.668Z,0.62
2019-03-08T11:43:27.322Z,0.80
2019-03-08T11:46:01.078Z,0.57
2019-03-08T11:48:47.917Z,0.90
2019-03-08T11:51:34.726Z,0.65
2019-03-08T11:54:21.022Z,1.30
2019-03-08T11:57:07.730Z,0.72
2019-03-08T12:00:01.529Z,0.72
2019-03-08T12:02:52.259Z,0.60
2019-03-08T12:05:39.092Z,0.70
2019-03-08T12:08:14.515Z,0.60
2019-03-08T12:11:01.250Z,1.02
2019-03-08T12:13:36.323Z,0.62
2019-03-08T12:16:23.145Z,0.60
2019-03-08T12:19:02.225Z,0.53
2019-03-08T12:21:49.290Z,0.80
2019-03-08T12:24:40.462Z,0.68
2019-03-08T12:27:28.128Z,0.65
2019-03-08T12:30:14.994Z,0.75
2019-03-08T12:32:55.415Z,0.60
2019-03-08T12:35:58.489Z,0.40
2019-03-08T12:38:39.134Z,0.70
2019-03-08T12:41:28.591Z,0.62
2019-03-08T12:44:28.589Z,0.80
2019-03-08T12:47:19.570Z,0.50
2019-03-08T12:49:55.311Z,0.60
2019-03-08T12:52:42.134Z,0.60
2019-03-08T12:55:28.982Z,0.78
2019-03-08T12:58:28.954Z,0.70
2019-03-08T13:01:14.098Z,0.70
2019-03-08T13:04:05.055Z,0.78
2019-03-08T13:06:51.874Z,0.72
2019-03-08T13:09:49.255Z,0.85
2019-03-08T13:12:18.499Z,0.70
2019-03-08T13:14:47.330Z,0.65
2019-03-08T13:17:16.436Z,1.10
2019-03-08T13:19:45.276Z,0.80
2019-03-08T13:22:14.089Z,0.80
2019-03-08T13:24:42.953Z,0.70
2019-03-08T13:27:11.814Z,0.80
2019-03-08T13:29:40.637Z,0.78
2019-03-08T13:32:09.649Z,0.80
2019-03-08T13:34:38.468Z,0.70
2019-03-08T13:37:07.270Z,0.60
2019-03-08T13:39:36.073Z,0.60
2019-03-08T13:42:04.939Z,1.10
2019-03-08T13:44:33.732Z,0.88
2019-03-08T13:47:02.839Z,0.93
2019-03-08T13:49:31.684Z,0.78
2019-03-08T13:52:00.483Z,0.95
2019-03-08T13:54:29.299Z,0.60
2019-03-08T13:56:58.114Z,0.90
2019-03-08T13:59:26.906Z,0.70
2019-03-08T14:01:55.937Z,0.90
2019-03-08T14:04:24.738Z,1.25
2019-03-08T14:06:53.510Z,1.10
2019-03-08T14:09:22.342Z,1.00
2019-03-08T14:11:51.142Z,0.85
2019-03-08T14:14:20.002Z,0.85
2019-03-08T14:16:48.921Z,0.70
2019-03-08T14:19:17.727Z,0.95
2019-03-08T14:21:46.643Z,1.02
2019-03-08T14:24:15.446Z,0.95
2019-03-08T14:26:44.247Z,0.90
2019-03-08T14:29:13.152Z,0.90
2019-03-08T14:32:12.984Z,0.80
2019-03-08T14:34:41.812Z,1.00
2019-03-08T14:37:10.696Z,0.90
2019-03-08T14:39:40.438Z,1.10
2019-03-08T14:42:18.347Z,0.85
2019-03-08T14:44:50.391Z,0.88
2019-03-08T14:47:29.236Z,1.20
2019-03-08T14:49:59.297Z,1.07
2019-03-08T14:52:26.516Z,0.90
2019-03-08T14:54:55.362Z,1.05
2019-03-08T14:57:27.071Z,1.20
2019-03-08T14:59:54.572Z,1.00
2019-03-08T15:02:23.851Z,0.80
2019-03-08T15:04:52.679Z,0.88
2019-03-08T15:07:21.551Z,1.60
2019-03-08T15:09:50.379Z,1.15
2019-03-08T15:12:19.181Z,1.42
2019-03-08T15:14:48.435Z,1.20
2019-03-08T15:17:17.688Z,1.40
2019-03-08T15:19:46.600Z,1.45
2019-03-08T15:22:15.422Z,1.10
2019-03-08T15:24:44.152Z,1.27
2019-03-08T15:27:12.983Z,1.30
2019-03-08T15:29:41.804Z,1.10
2019-03-08T15:32:10.635Z,1.27
2019-03-08T15:34:39.498Z,1.15
2019-03-08T15:37:08.423Z,1.20
2019-03-08T15:39:37.247Z,1.05
2019-03-08T15:42:06.435Z,1.30
2019-03-08T15:44:35.288Z,1.00
2019-03-08T15:47:04.104Z,1.10
2019-03-08T15:49:32.960Z,1.10
2019-03-08T15:52:03.637Z,1.60
2019-03-08T15:54:32.247Z,1.60
2019-03-08T15:57:01.154Z,1.32
2019-03-08T15:59:29.995Z,1.50
2019-03-08T16:02:02.156Z,1.55
2019-03-08T16:04:29.295Z,1.40
2019-03-08T16:06:58.085Z,1.17
2019-03-08T16:09:26.869Z,0.98
2019-03-08T16:11:55.670Z,1.10
2019-03-08T16:14:24.485Z,1.30
2019-03-08T16:16:53.401Z,1.30
2019-03-08T16:19:24.827Z,1.20
2019-03-08T16:21:52.717Z,1.30
2019-03-08T16:24:21.514Z,1.40
2019-03-08T16:26:50.343Z,1.60
2019-03-08T16:29:19.193Z,1.52
2019-03-08T16:31:56.418Z,1.20
2019-03-08T16:34:25.206Z,1.50
2019-03-08T16:37:14.175Z,1.95
2019-03-08T16:40:00.502Z,1.57
2019-03-08T16:42:47.293Z,1.37
2019-03-08T16:45:41.392Z,1.52
2019-03-08T16:48:20.732Z,1.30
2019-03-08T16:51:00.308Z,1.10
2019-03-08T16:53:42.558Z,1.60
2019-03-08T16:56:28.906Z,1.10
2019-03-08T16:59:15.724Z,1.07
2019-03-08T17:02:02.226Z,1.85
2019-03-08T17:04:48.975Z,1.20
2019-03-08T17:07:40.009Z,1.25
2019-03-08T17:10:20.991Z,1.22
2019-03-08T17:13:14.907Z,1.15
2019-03-08T17:15:53.267Z,1.40
2019-03-08T17:18:45.334Z,1.20
2019-03-08T17:21:40.657Z,1.12
2019-03-08T17:24:19.039Z,1.20
2019-03-08T17:27:06.174Z,1.20
2019-03-08T17:30:00.142Z,1.37
2019-03-08T17:32:51.826Z,1.02
2019-03-08T17:35:39.809Z,1.00
2019-03-08T17:38:17.998Z,2.67
2019-03-08T17:41:00.440Z,0.90
2019-03-08T17:43:44.943Z,0.90
2019-03-08T17:46:23.484Z,1.22
2019-03-08T17:49:08.557Z,1.35
2019-03-08T17:51:44.715Z,1.62
2019-03-08T17:54:32.617Z,1.10
2019-03-08T17:57:23.371Z,1.15
2019-03-08T18:00:29.459Z,1.25
2019-03-08T18:03:32.413Z,1.32
2019-03-08T18:06:10.505Z,1.25
2019-03-08T18:08:52.115Z,1.30
2019-03-08T18:11:38.878Z,0.82
2019-03-08T18:14:45.115Z,1.15
2019-03-08T18:17:32.982Z,1.20
2019-03-08T18:20:26.947Z,1.20
2019-03-08T18:23:04.682Z,1.07
2019-03-08T18:25:40.050Z,1.40
2019-03-08T18:28:30.989Z,1.20
2019-03-08T18:31:18.872Z,1.80
2019-03-08T18:33:56.652Z,1.35
2019-03-08T18:36:43.612Z,1.25
2019-03-08T18:39:37.571Z,1.40
2019-03-08T18:42:31.554Z,1.20
2019-03-08T18:45:09.935Z,1.00
2019-03-08T18:47:58.751Z,1.10
2019-03-08T18:50:46.626Z,1.25
2019-03-08T18:53:31.747Z,1.05
2019-03-08T18:56:31.451Z,1.70
2019-03-08T18:59:09.015Z,1.47
2019-03-08T19:02:12.190Z,1.20
2019-03-08T19:07:59.031Z,1.30
2019-03-08T19:10:35.410Z,1.12
2019-03-08T19:13:18.245Z,1.10
2019-03-08T19:15:54.120Z,1.02
2019-03-08T19:18:39.253Z,1.30
2019-03-08T19:21:22.278Z,1.12
2019-03-08T19:24:05.179Z,1.35
2019-03-08T19:27:01.995Z,1.20
2019-03-08T19:29:44.856Z,1.30
2019-03-08T19:32:24.319Z,1.30
2019-03-08T19:35:27.303Z,1.20
2019-03-08T19:38:12.050Z,1.10
2019-03-08T19:41:02.738Z,1.20
2019-03-08T19:43:59.857Z,1.30
2019-03-08T19:46:59.895Z,1.30
2019-03-08T19:49:53.543Z,1.37
2019-03-08T19:52:28.793Z,0.93
2019-03-08T19:55:06.247Z,2.15
2019-03-08T19:57:54.227Z,1.55
2019-03-08T20:00:42.229Z,1.40
2019-03-08T20:03:28.827Z,1.05
2019-03-08T20:06:06.481Z,1.00
2019-03-08T20:08:54.385Z,1.52
2019-03-08T20:11:32.762Z,1.42
2019-03-08T20:14:26.912Z,1.20
2019-03-08T20:17:18.026Z,1.20
2019-03-08T20:20:05.887Z,1.30
2019-03-08T20:22:47.466Z,1.40
2019-03-08T20:25:47.769Z,1.12
2019-03-08T20:28:38.607Z,1.50
2019-03-08T20:31:35.328Z,1.30
2019-03-08T20:34:21.864Z,1.45
2019-03-08T20:37:18.870Z,0.90
2019-03-08T20:40:05.891Z,1.30
2019-03-08T20:42:57.236Z,1.40
2019-03-08T20:45:57.249Z,1.62
2019-03-08T20:48:26.049Z,1.00
2019-03-08T20:50:54.861Z,1.50
2019-03-08T20:53:23.740Z,1.27
2019-03-08T20:55:52.573Z,1.17
2019-03-08T20:58:21.378Z,1.30
2019-03-08T21:00:50.190Z,1.20
2019-03-08T21:03:19.025Z,1.15
2019-03-08T21:05:47.864Z,1.17
2019-03-08T21:08:16.777Z,1.27
2019-03-08T21:10:45.575Z,0.88
2019-03-08T21:13:14.426Z,1.10
2019-03-08T21:15:43.299Z,1.05
2019-03-08T21:18:12.111Z,1.37
2019-03-08T21:20:41.146Z,1.30
2019-03-08T21:23:09.992Z,1.30
2019-03-08T21:25:38.799Z,1.17
2019-03-08T21:28:07.665Z,1.12
2019-03-08T21:30:36.435Z,1.02
2019-03-08T21:33:05.235Z,1.07
2019-03-08T21:35:53.406Z,0.98
2019-03-08T21:38:22.296Z,0.90
2019-03-08T21:40:51.102Z,1.00
2019-03-08T21:43:19.968Z,1.15
2019-03-08T21:45:48.859Z,0.82
2019-03-08T21:48:17.729Z,1.00
2019-03-08T21:50:46.595Z,1.40
2019-03-08T21:53:15.399Z,1.00
2019-03-08T21:55:44.209Z,0.93
2019-03-08T21:58:13.065Z,1.20
2019-03-08T22:00:41.914Z,1.00
2019-03-08T22:03:10.725Z,1.05
2019-03-08T22:05:40.440Z,1.20
2019-03-08T22:08:16.850Z,1.70
2019-03-08T22:10:56.599Z,1.00
2019-03-08T22:13:25.409Z,1.00
2019-03-08T22:15:54.229Z,0.88
2019-03-08T22:18:23.145Z,1.00
2019-03-08T22:20:52.274Z,1.00
2019-03-08T22:23:21.102Z,1.00
2019-03-08T22:25:49.934Z,0.90
2019-03-08T22:28:18.752Z,0.98
2019-03-08T22:30:47.557Z,1.25
2019-03-08T22:33:16.410Z,0.93
2019-03-08T22:35:45.257Z,1.07
2019-03-08T22:38:14.135Z,1.00
2019-03-08T22:40:42.941Z,0.88
2019-03-08T22:43:11.776Z,1.30
2019-03-08T22:45:40.633Z,1.70
2019-03-08T22:48:09.575Z,1.22
2019-03-08T22:50:38.373Z,1.00
2019-03-08T22:53:07.229Z,0.88
2019-03-08T22:55:36.086Z,1.10
2019-03-08T22:58:04.870Z,1.25
2019-03-08T23:01:03.567Z,0.85
2019-03-08T23:03:32.471Z,1.00
2019-03-08T23:06:01.287Z,1.10
2019-03-08T23:08:30.347Z,1.05
2019-03-08T23:10:59.169Z,0.90
2019-03-08T23:13:27.993Z,0.90
2019-03-08T23:15:56.861Z,1.12
2019-03-08T23:18:25.689Z,1.15
2019-03-08T23:20:54.570Z,1.10
2019-03-08T23:23:23.397Z,1.40
2019-03-08T23:25:52.207Z,1.17
2019-03-08T23:28:37.722Z,1.10
2019-03-08T23:31:12.544Z,1.10
2019-03-08T23:33:41.378Z,1.10
2019-03-08T23:36:10.206Z,0.98
2019-03-08T23:38:39.029Z,1.15
2019-03-08T23:41:07.830Z,1.12
2019-03-08T23:43:36.950Z,1.10
2019-03-08T23:46:05.799Z,1.30
2019-03-08T23:48:34.588Z,0.85
2019-03-08T23:51:03.311Z,1.00
2019-03-08T23:53:32.199Z,1.00
2019-03-08T23:56:01.028Z,1.20
2019-03-08T23:58:29.861Z,1.00
